IAD weather

Washington Dulles International Airport
Washington, District of Columbia, United States

Public forecast

Using degrees Fahrenheit for public forecast. Weather courtesy of forecast.io.

METAR (pilot weather report)

Retrieved 2019/04/23 08:52 UTC (39 minutes ago):

KIAD 230852Z 20003KT 10SM FEW250 09/07 A3006 RMK AO2 SLP177 T00940072 55009

TAF (pilot weather forecast)

Retrieved 2019/04/23 06:22 UTC (3 hours ago):

TAF KIAD 230520Z 2306/2412 29004KT P6SM FEW250 FM231500 22004KT P6SM FEW250 FM231900 20008KT P6SM FEW140 FM240400 23007KT P6SM BKN110 FM240700 27006KT P6SM BKN070 FM241100 31008KT P6SM BKN200